Aérodrome :
LOGIN :

S'inscrire | Disclaimer

   EN    FR    IT 

 










Légende :    VFR   VFR Marginal   IFR   IFR Intensif   IFR Très Intensif
Visi : 
Plafond : 
>= 8 km
>= 3000ft
5 à 8 km
1000 à 3000 ft
1500m à 5 km
500 à 1000 ft
800 à 1500m
200 à 500 ft
< 800m
< 200 ft
Symboles :   Orages  Brouillard  Fortes neiges  Fortes précipitations  Vent > 20 kt
SIGMETs :   Divers  Orages  Givrage  Turbulence  Onde Orograph.  Cendres Volcan.







- Altitude de l'aérodrome : 527 ft
- Code IATA : DBV


LDDU - Dubrovnik

DERNIER METAR :
  • 190330Z 08006KT 060V120 CAVOK 23/09 Q1015 NOSIG

METARs EXPIRÉS :
  • 190300Z 05006KT 020V080 CAVOK 25/09 Q1015 NOSIG
  • 190230Z 06005KT 040V100 CAVOK 23/09 Q1015 NOSIG
  • 190200Z 05004KT 010V080 CAVOK 25/09 Q1015 NOSIG
  • 190130Z 06004KT 020V080 CAVOK 23/09 Q1015
  • 190100Z VRB02KT CAVOK 25/09 Q1015

TAF TAF LDDU
Valide du 19 à 00h jusqu'au 20 à 00h UTC


182325Z 1900/1924 VRB02KT CAVOK TX32/1909Z TN27/1902Z
TEMPO 1912/1914 30006KT
BECMG 1918/1920 VRB02KT
Pas de NOTAMs connus pour ce terrain.



MET'MAP, la Météo Aéronautique d'un coup d'oeil ! - Copyright ORBIFLY Décembre 2007 - Disclaimer

ORBIFLY MET'MAP TEAM :

Programmation & Développement : Alexandra Zaïnal
Conception & Développement : Baudouin d'Aumeries
Co-Programmation & Développement : Marc-Olivier Méhu
Soutien technique & logistique : Manuel Goepfert

Contact : metmap@orbifly.com




SOURCES & CREDITS :

   NOAA